createdAt,value
2022-09-11T00:01:01.173Z,10.68
2022-09-11T00:03:28.296Z,11.15
2022-09-11T00:05:55.087Z,11.43
2022-09-11T00:08:22.197Z,11.98
2022-09-11T00:10:49.319Z,11.07
2022-09-11T00:13:21.789Z,12.00
2022-09-11T00:18:21.819Z,11.63
2022-09-11T00:20:56.822Z,12.18
2022-09-11T00:23:26.423Z,11.98
2022-09-11T00:25:53.528Z,47.05
2022-09-11T00:28:22.986Z,12.50
2022-09-11T00:31:07.624Z,13.13
2022-09-11T00:33:36.118Z,13.80
2022-09-11T00:36:07.812Z,14.13
2022-09-11T00:38:37.222Z,14.37
2022-09-11T00:41:07.899Z,13.90
2022-09-11T00:43:52.965Z,14.32
2022-09-11T00:46:20.925Z,13.73
2022-09-11T00:48:50.101Z,14.75
2022-09-11T00:51:28.168Z,14.27
2022-09-11T00:53:57.779Z,12.93
2022-09-11T00:56:29.209Z,13.23
2022-09-11T00:58:57.270Z,11.88
2022-09-11T01:01:24.069Z,13.43
2022-09-11T01:03:51.480Z,12.25
2022-09-11T01:06:21.039Z,12.98
2022-09-11T01:08:47.862Z,11.85
2022-09-11T01:11:31.520Z,12.10
2022-09-11T01:14:34.139Z,13.38
2022-09-11T01:17:29.564Z,11.65
2022-09-11T01:20:20.781Z,12.52
2022-09-11T01:23:07.331Z,12.38
2022-09-11T01:25:52.150Z,13.32
2022-09-11T01:28:35.596Z,13.00
2022-09-11T01:31:10.293Z,14.10
2022-09-11T01:33:43.974Z,14.10
2022-09-11T01:36:21.297Z,14.05
2022-09-11T01:39:00.650Z,15.07
2022-09-11T01:41:45.213Z,14.93
2022-09-11T01:44:34.157Z,15.52
2022-09-11T01:47:03.603Z,16.27
2022-09-11T01:49:55.759Z,16.70
2022-09-11T01:52:30.882Z,17.23
2022-09-11T01:55:26.064Z,18.25
2022-09-11T01:57:58.452Z,18.27
2022-09-11T02:00:25.327Z,19.13
2022-09-11T02:03:01.173Z,18.67
2022-09-11T02:05:38.017Z,20.63
2022-09-11T02:08:12.138Z,21.15
2022-09-11T02:10:42.617Z,22.45
2022-09-11T02:13:32.287Z,21.92
2022-09-11T02:16:31.552Z,23.50
2022-09-11T02:19:04.058Z,22.55
2022-09-11T02:23:59.071Z,23.77
2022-09-11T02:26:29.057Z,25.35
2022-09-11T02:28:56.027Z,25.90
2022-09-11T02:31:23.255Z,24.80
2022-09-11T02:33:51.284Z,24.40
2022-09-11T02:36:29.790Z,23.15
2022-09-11T02:39:08.810Z,23.70
2022-09-11T02:41:57.438Z,23.40
2022-09-11T02:44:27.010Z,23.58
2022-09-11T02:47:18.540Z,22.85
2022-09-11T02:50:04.962Z,23.25
2022-09-11T02:52:59.226Z,22.20
2022-09-11T02:56:04.572Z,22.58
2022-09-11T02:58:46.374Z,23.17
2022-09-11T03:01:13.312Z,24.00
2022-09-11T03:03:43.010Z,23.33
2022-09-11T03:06:18.176Z,24.33
2022-09-11T03:08:45.688Z,24.23
2022-09-11T03:11:15.342Z,23.48
2022-09-11T03:13:42.436Z,24.85
2022-09-11T03:16:09.426Z,24.27
2022-09-11T03:18:36.397Z,26.75
2022-09-11T03:21:03.794Z,25.00
2022-09-11T03:23:31.143Z,24.92
2022-09-11T03:25:58.780Z,26.42
2022-09-11T03:28:25.665Z,24.38
2022-09-11T03:30:55.629Z,23.58
2022-09-11T03:33:22.474Z,25.63
2022-09-11T03:35:49.217Z,25.73
2022-09-11T03:38:16.066Z,24.88
2022-09-11T03:40:44.556Z,25.13
2022-09-11T03:43:16.624Z,26.38
2022-09-11T03:45:44.918Z,25.35
2022-09-11T03:48:11.941Z,25.95
2022-09-11T03:50:38.739Z,25.92
2022-09-11T03:53:05.776Z,25.02
2022-09-11T03:55:32.747Z,23.92
2022-09-11T03:58:00.117Z,26.17
2022-09-11T04:00:27.074Z,25.02
2022-09-11T04:02:55.484Z,24.60
2022-09-11T04:05:25.676Z,26.90
2022-09-11T04:07:53.163Z,25.80
2022-09-11T04:10:20.246Z,24.75
2022-09-11T04:12:50.114Z,25.48
2022-09-11T04:15:16.964Z,24.55
2022-09-11T04:17:43.920Z,25.13
2022-09-11T04:20:11.164Z,24.77
2022-09-11T04:22:41.013Z,25.27
2022-09-11T04:25:08.361Z,25.27
2022-09-11T04:27:35.137Z,23.98
2022-09-11T04:30:01.884Z,24.50
2022-09-11T04:32:29.277Z,24.33
2022-09-11T04:34:56.378Z,24.02
2022-09-11T04:37:23.123Z,24.08
2022-09-11T04:39:50.040Z,24.10
2022-09-11T04:42:16.883Z,24.13
2022-09-11T04:44:43.649Z,22.90
2022-09-11T04:47:10.442Z,23.67
2022-09-11T04:49:37.166Z,24.55
2022-09-11T04:52:06.135Z,22.00
2022-09-11T04:54:37.144Z,23.20
2022-09-11T04:57:04.326Z,23.38
2022-09-11T04:59:31.286Z,21.65
2022-09-11T05:01:58.233Z,22.33
2022-09-11T05:04:26.407Z,22.60
2022-09-11T05:06:53.717Z,22.58
2022-09-11T05:09:20.661Z,22.48
2022-09-11T05:11:47.732Z,21.35
2022-09-11T05:14:15.337Z,22.05
2022-09-11T05:16:43.748Z,22.58
2022-09-11T05:19:10.680Z,20.65
2022-09-11T05:21:37.648Z,21.10
2022-09-11T05:24:04.759Z,21.05
2022-09-11T05:26:36.111Z,21.13
2022-09-11T05:29:09.282Z,19.77
2022-09-11T05:31:37.292Z,18.13
2022-09-11T05:34:05.172Z,19.45
2022-09-11T05:36:33.146Z,18.88
2022-09-11T05:39:00.207Z,18.48
2022-09-11T05:41:27.346Z,18.10
2022-09-11T05:43:54.784Z,18.25
2022-09-11T05:46:21.934Z,18.38
2022-09-11T05:48:48.920Z,17.88
2022-09-11T05:51:19.029Z,17.40
2022-09-11T05:53:50.419Z,15.15
2022-09-11T05:56:20.080Z,16.73
2022-09-11T05:58:48.256Z,16.35
2022-09-11T06:01:17.493Z,16.00
2022-09-11T06:03:44.946Z,14.25
2022-09-11T06:06:12.939Z,14.10
2022-09-11T06:08:44.552Z,14.60
2022-09-11T06:11:13.295Z,13.50
2022-09-11T06:13:42.342Z,14.40
2022-09-11T06:16:14.557Z,15.00
2022-09-11T06:18:44.878Z,14.25
2022-09-11T06:21:13.159Z,15.75
2022-09-11T06:23:40.437Z,15.50
2022-09-11T06:26:10.075Z,14.50
2022-09-11T06:28:37.984Z,14.93
2022-09-11T06:31:06.533Z,14.48
2022-09-11T06:33:36.157Z,15.65
2022-09-11T06:36:05.493Z,15.60
2022-09-11T06:38:32.934Z,15.50
2022-09-11T06:41:04.827Z,14.70
2022-09-11T06:43:32.682Z,14.73
2022-09-11T06:46:17.126Z,13.88
2022-09-11T06:48:46.092Z,13.98
2022-09-11T06:51:15.452Z,14.88
2022-09-11T06:53:43.093Z,13.68
2022-09-11T06:56:14.957Z,13.27
2022-09-11T06:58:41.764Z,13.57
2022-09-11T07:01:14.409Z,13.73
2022-09-11T07:03:52.962Z,11.93
2022-09-11T07:06:25.042Z,12.02
2022-09-11T07:08:53.746Z,11.90
2022-09-11T07:11:20.913Z,11.23
2022-09-11T07:13:47.920Z,12.18
2022-09-11T07:16:15.130Z,12.13
2022-09-11T07:18:44.536Z,11.45
2022-09-11T07:21:18.761Z,11.93
2022-09-11T07:23:49.675Z,10.65
2022-09-11T07:26:17.445Z,10.35
2022-09-11T07:28:44.498Z,10.23
2022-09-11T07:31:20.635Z,10.23
2022-09-11T07:33:49.929Z,9.02
2022-09-11T07:36:22.310Z,9.45
2022-09-11T07:41:18.600Z,8.80
2022-09-11T07:43:48.372Z,9.50
2022-09-11T07:46:15.488Z,8.60
2022-09-11T07:48:43.148Z,9.10
2022-09-11T07:51:16.101Z,8.38
2022-09-11T07:53:48.343Z,8.65
2022-09-11T07:56:18.667Z,8.88
2022-09-11T07:58:46.354Z,9.35
2022-09-11T08:01:16.294Z,9.15
2022-09-11T08:03:44.057Z,11.40
2022-09-11T08:06:22.155Z,9.40
2022-09-11T10:42:23.173Z,4.82
2022-09-11T10:44:52.275Z,4.72
2022-09-11T10:47:25.464Z,4.70
2022-09-11T10:50:20.442Z,4.53
2022-09-11T10:53:20.692Z,4.43
2022-09-11T10:55:58.121Z,4.65
2022-09-11T10:58:31.146Z,4.20
2022-09-11T11:00:58.462Z,4.53
2022-09-11T11:03:27.678Z,4.85
2022-09-11T11:06:06.581Z,4.80
2022-09-11T11:08:36.650Z,3.85
2022-09-11T11:11:18.702Z,3.30
2022-09-11T11:13:53.490Z,3.78
2022-09-11T11:16:29.139Z,3.08
2022-09-11T11:19:04.828Z,3.47
2022-09-11T11:22:03.377Z,3.60
2022-09-11T11:24:49.005Z,3.47
2022-09-11T11:27:24.790Z,3.40
2022-09-11T11:30:08.907Z,3.03
2022-09-11T11:32:44.898Z,3.30
2022-09-11T11:35:25.952Z,2.83
2022-09-11T11:38:02.918Z,2.88
2022-09-11T11:40:40.497Z,2.80
2022-09-11T11:43:13.416Z,2.63
2022-09-11T11:46:02.430Z,2.00
2022-09-11T11:48:52.546Z,2.67
2022-09-11T11:51:23.771Z,2.20
2022-09-11T11:53:50.468Z,2.35
2022-09-11T11:56:19.991Z,1.92
2022-09-11T11:59:17.501Z,2.17
2022-09-11T12:01:48.017Z,2.00
2022-09-11T12:04:49.743Z,2.53
2022-09-11T12:07:26.185Z,2.00
2022-09-11T12:09:55.719Z,2.10
2022-09-11T12:12:24.961Z,2.05
2022-09-11T12:15:02.517Z,1.80
2022-09-11T12:17:32.622Z,1.50
2022-09-11T12:20:33.345Z,1.95
2022-09-11T12:23:00.860Z,1.95
2022-09-11T12:25:31.137Z,1.80
2022-09-11T12:28:34.742Z,2.10
2022-09-11T12:31:06.790Z,1.63
2022-09-11T12:33:47.187Z,1.85
2022-09-11T12:36:24.290Z,1.90
2022-09-11T12:38:59.482Z,1.90
2022-09-11T12:41:31.448Z,1.80
2022-09-11T12:43:58.359Z,2.30
2022-09-11T12:46:28.119Z,2.17
2022-09-11T12:49:21.537Z,1.85
2022-09-11T12:51:56.361Z,1.83
2022-09-11T12:54:23.175Z,1.60
2022-09-11T12:57:13.008Z,1.60
2022-09-11T12:59:43.240Z,1.95
2022-09-11T13:02:51.093Z,1.80
2022-09-11T13:05:36.492Z,1.38
2022-09-11T13:08:09.082Z,1.67
2022-09-11T13:10:38.765Z,1.80
2022-09-11T13:13:28.364Z,1.30
2022-09-11T13:15:58.073Z,1.25
2022-09-11T13:18:26.373Z,1.33
2022-09-11T13:21:09.037Z,1.33
2022-09-11T13:23:35.822Z,1.50
2022-09-11T13:26:05.389Z,1.42
2022-09-11T13:28:42.970Z,1.40
2022-09-11T13:31:21.432Z,1.40
2022-09-11T13:33:51.235Z,1.25
2022-09-11T13:36:23.069Z,1.20
2022-09-11T13:38:54.492Z,1.42
2022-09-11T13:41:29.959Z,1.40
2022-09-11T13:44:01.508Z,1.10
2022-09-11T13:46:31.607Z,1.37
2022-09-11T13:49:11.146Z,1.00
2022-09-11T13:51:45.817Z,1.52
2022-09-11T13:54:23.951Z,1.60
2022-09-11T13:56:56.907Z,1.52
2022-09-11T13:59:36.965Z,1.10
2022-09-11T14:02:08.645Z,1.33
2022-09-11T14:04:40.668Z,1.27
2022-09-11T14:07:20.891Z,1.40
2022-09-11T14:09:59.667Z,1.33
2022-09-11T14:12:28.934Z,1.00
2022-09-11T14:14:58.427Z,1.23
2022-09-11T14:17:25.820Z,0.90
2022-09-11T14:19:58.967Z,1.20
2022-09-11T14:22:33.534Z,1.02
2022-09-11T14:25:24.060Z,1.02
2022-09-11T14:27:51.329Z,1.00
2022-09-11T14:30:25.258Z,1.00
2022-09-11T14:33:13.047Z,1.27
2022-09-11T14:35:40.054Z,1.10
2022-09-11T14:38:09.240Z,1.10
2022-09-11T14:40:36.662Z,1.00
2022-09-11T14:43:05.312Z,1.30
2022-09-11T14:45:32.144Z,1.13
2022-09-11T14:48:00.170Z,1.00
2022-09-11T14:50:27.711Z,1.00
2022-09-11T14:52:54.534Z,0.82
2022-09-11T14:55:21.410Z,1.00
2022-09-11T14:57:48.355Z,0.77
2022-09-11T15:00:18.217Z,0.88
2022-09-11T15:02:46.451Z,0.73
2022-09-11T15:05:19.341Z,1.10
2022-09-11T15:07:46.121Z,0.90
2022-09-11T15:10:13.892Z,0.73
2022-09-11T15:12:40.759Z,2.33
2022-09-11T15:15:08.202Z,0.80
2022-09-11T15:17:36.513Z,0.80
2022-09-11T15:20:09.476Z,0.60
2022-09-11T15:22:38.280Z,0.82
2022-09-11T15:25:05.905Z,0.98
2022-09-11T15:27:32.733Z,0.60
2022-09-11T15:30:00.565Z,0.90
2022-09-11T15:32:27.521Z,0.75
2022-09-11T15:34:54.848Z,0.80
2022-09-11T15:37:21.662Z,0.70
2022-09-11T15:39:50.476Z,0.55
2022-09-11T15:42:17.948Z,0.40
2022-09-11T15:44:46.202Z,0.80
2022-09-11T15:47:13.765Z,0.50
2022-09-11T15:49:42.489Z,0.80
2022-09-11T15:52:09.261Z,0.90
2022-09-11T15:54:36.238Z,0.82
2022-09-11T15:57:03.246Z,0.80
2022-09-11T15:59:30.017Z,0.80
2022-09-11T16:01:57.000Z,0.65
2022-09-11T16:04:28.175Z,0.60
2022-09-11T16:06:55.250Z,0.70
2022-09-11T16:09:25.214Z,0.60
2022-09-11T16:11:54.496Z,0.80
2022-09-11T16:14:24.632Z,0.63
2022-09-11T16:16:52.507Z,0.60
2022-09-11T16:19:21.499Z,0.77
2022-09-11T16:21:49.259Z,0.60
2022-09-11T16:24:16.765Z,0.60
2022-09-11T16:26:44.533Z,0.70
2022-09-11T16:29:14.557Z,0.77
2022-09-11T16:31:42.647Z,0.60
2022-09-11T16:34:10.498Z,0.70
2022-09-11T16:36:41.881Z,0.90
2022-09-11T16:39:14.428Z,1.10
2022-09-11T16:41:41.738Z,0.90
2022-09-11T16:44:11.914Z,0.60
2022-09-11T16:46:39.314Z,0.88
2022-09-11T16:49:06.331Z,0.82
2022-09-11T16:51:34.206Z,0.90
2022-09-11T16:54:03.550Z,0.70
2022-09-11T16:56:30.512Z,0.80
2022-09-11T16:58:57.244Z,0.90
2022-09-11T17:01:26.383Z,1.00
2022-09-11T17:03:57.783Z,0.77
2022-09-11T17:06:30.256Z,0.80
2022-09-11T17:08:59.755Z,1.00
2022-09-11T17:11:28.222Z,1.20
2022-09-11T17:13:55.136Z,0.95
2022-09-11T17:16:26.056Z,1.25
2022-09-11T17:18:56.690Z,0.90
2022-09-11T17:21:24.892Z,0.90
2022-09-11T17:23:53.636Z,1.10
2022-09-11T17:26:21.543Z,1.00
2022-09-11T17:28:50.064Z,0.88
2022-09-11T17:31:19.438Z,0.95
2022-09-11T17:33:47.670Z,1.00
2022-09-11T17:36:17.266Z,1.08
2022-09-11T17:38:45.882Z,1.00
2022-09-11T17:41:13.129Z,1.00
2022-09-11T17:43:40.689Z,1.10
2022-09-11T17:46:11.452Z,1.05
2022-09-11T17:48:39.857Z,1.20
2022-09-11T17:51:12.957Z,1.40
2022-09-11T17:53:42.753Z,1.30
2022-09-11T17:56:13.190Z,1.55
2022-09-11T17:58:41.228Z,1.10
2022-09-11T18:01:08.241Z,1.35
2022-09-11T18:03:35.785Z,1.40
2022-09-11T18:06:05.620Z,1.33
2022-09-11T18:08:33.303Z,1.30
2022-09-11T18:11:01.295Z,1.33
2022-09-11T18:13:34.607Z,1.20
2022-09-11T18:16:02.966Z,1.30
2022-09-11T18:18:30.709Z,1.20
2022-09-11T18:21:05.481Z,1.33
2022-09-11T18:23:32.421Z,1.40
2022-09-11T18:26:01.092Z,1.42
2022-09-11T18:28:29.782Z,1.65
2022-09-11T18:31:04.896Z,1.40
2022-09-11T18:33:32.783Z,1.88
2022-09-11T18:36:12.020Z,1.50
2022-09-11T18:38:38.798Z,1.70
2022-09-11T18:41:05.743Z,1.63
2022-09-11T18:43:32.704Z,1.80
2022-09-11T18:46:02.938Z,2.00
2022-09-11T18:48:29.930Z,2.58
2022-09-11T18:51:00.040Z,2.13
2022-09-11T18:53:27.074Z,2.28
2022-09-11T18:56:05.315Z,1.90
2022-09-11T18:58:33.891Z,1.92
2022-09-11T19:01:09.003Z,1.95
2022-09-11T19:03:40.143Z,1.92
2022-09-11T19:06:09.407Z,2.10
2022-09-11T19:08:37.649Z,1.73
2022-09-11T19:11:14.366Z,2.30
2022-09-11T19:13:42.574Z,2.30
2022-09-11T19:16:09.999Z,2.05
2022-09-11T19:18:38.940Z,2.15
2022-09-11T19:21:14.777Z,2.22
2022-09-11T19:23:43.867Z,2.30
2022-09-11T19:26:14.802Z,2.00
2022-09-11T19:28:43.162Z,2.47
2022-09-11T19:31:12.172Z,2.42
2022-09-11T19:33:40.255Z,2.60
2022-09-11T19:36:11.864Z,2.35
2022-09-11T19:38:43.140Z,2.40
2022-09-11T19:41:12.909Z,2.75
2022-09-11T19:43:41.158Z,2.53
2022-09-11T19:46:11.217Z,3.00
2022-09-11T19:48:38.081Z,3.00
2022-09-11T19:51:17.109Z,3.20
2022-09-11T19:53:44.318Z,3.25
2022-09-11T19:56:12.254Z,3.00
2022-09-11T19:58:39.777Z,2.80
2022-09-11T20:01:15.117Z,3.38
2022-09-11T20:03:44.600Z,3.40
2022-09-11T20:06:13.118Z,3.20
2022-09-11T20:08:43.440Z,3.35
2022-09-11T20:11:12.972Z,3.20
2022-09-11T20:13:39.828Z,3.40
2022-09-11T20:16:08.956Z,2.97
2022-09-11T20:18:36.267Z,3.63
2022-09-11T20:21:06.970Z,3.40
2022-09-11T20:23:34.531Z,3.25
2022-09-11T20:26:22.349Z,4.22
2022-09-11T20:29:13.672Z,3.80
2022-09-11T20:31:47.448Z,3.63
2022-09-11T20:34:16.947Z,3.85
2022-09-11T20:36:43.773Z,3.78
2022-09-11T20:39:13.630Z,4.18
2022-09-11T20:41:40.645Z,3.90
2022-09-11T20:44:07.541Z,3.85
2022-09-11T20:46:34.357Z,4.07
2022-09-11T20:49:01.185Z,4.18
2022-09-11T20:51:27.977Z,4.95
2022-09-11T20:53:56.117Z,4.80
2022-09-11T20:56:24.150Z,4.88
2022-09-11T20:58:51.926Z,4.93
2022-09-11T21:01:24.433Z,4.60
2022-09-11T21:03:53.426Z,4.63
2022-09-11T21:06:25.514Z,4.65
2022-09-11T21:08:55.589Z,4.43
2022-09-11T21:11:26.778Z,4.88
2022-09-11T21:13:53.600Z,4.28
2022-09-11T21:16:21.042Z,4.93
2022-09-11T21:18:56.273Z,4.93
2022-09-11T21:21:24.149Z,5.10
2022-09-11T21:23:54.397Z,4.28
2022-09-11T21:26:21.169Z,4.40
2022-09-11T21:28:48.082Z,4.65
2022-09-11T21:31:14.885Z,4.30
2022-09-11T21:33:41.778Z,4.47
2022-09-11T21:36:09.013Z,4.90
2022-09-11T21:38:37.414Z,4.03
2022-09-11T21:41:07.260Z,4.68
2022-09-11T21:43:34.370Z,4.78
2022-09-11T21:46:01.816Z,4.53
2022-09-11T21:48:32.369Z,4.25
2022-09-11T21:51:10.164Z,4.75
2022-09-11T21:53:38.204Z,4.68
2022-09-11T21:56:06.442Z,5.10
2022-09-11T21:58:33.485Z,4.70
2022-09-11T22:01:08.209Z,4.93
2022-09-11T22:03:35.138Z,4.93
2022-09-11T22:06:09.101Z,4.78
2022-09-11T22:08:37.946Z,4.95
2022-09-11T22:11:05.290Z,4.80
2022-09-11T22:13:32.913Z,4.43
2022-09-11T22:16:00.400Z,4.43
2022-09-11T22:18:27.224Z,4.72
2022-09-11T22:20:58.248Z,4.88
2022-09-11T22:23:25.087Z,5.03
2022-09-11T22:25:58.832Z,4.72
2022-09-11T22:28:25.786Z,4.65
2022-09-11T22:30:52.640Z,4.85
2022-09-11T22:33:19.504Z,4.80
2022-09-11T22:35:49.397Z,4.85
2022-09-11T22:38:16.633Z,4.13
2022-09-11T22:40:43.592Z,4.53
2022-09-11T22:43:10.361Z,4.82
2022-09-11T22:45:37.434Z,4.57
2022-09-11T22:48:04.958Z,4.70
2022-09-11T22:50:33.512Z,4.68
2022-09-11T22:53:00.312Z,4.68
2022-09-11T22:55:27.333Z,4.55
2022-09-11T22:57:54.208Z,4.40
2022-09-11T23:00:21.042Z,4.25
2022-09-11T23:02:47.833Z,4.75
2022-09-11T23:05:33.129Z,4.82
2022-09-11T23:07:59.901Z,5.10
2022-09-11T23:10:26.795Z,4.95
2022-09-11T23:12:53.745Z,5.10
2022-09-11T23:15:21.254Z,5.18
2022-09-11T23:17:48.098Z,5.03
2022-09-11T23:20:14.932Z,5.10
2022-09-11T23:22:41.759Z,4.63
2022-09-11T23:25:08.984Z,5.10
2022-09-11T23:27:35.773Z,4.78
2022-09-11T23:30:02.720Z,4.45
2022-09-11T23:32:29.471Z,4.60
2022-09-11T23:34:56.373Z,4.55
2022-09-11T23:37:23.122Z,4.82
2022-09-11T23:39:50.076Z,4.45
2022-09-11T23:42:16.860Z,4.97
2022-09-11T23:44:43.615Z,4.10
2022-09-11T23:47:10.353Z,4.22
2022-09-11T23:49:37.152Z,4.43
2022-09-11T23:52:04.912Z,4.35
2022-09-11T23:54:31.733Z,5.13
2022-09-11T23:56:59.048Z,5.18
2022-09-11T23:59:26.006Z,5.28
